Time;durP1;ratioP1;P1;durP2;ratioP2;P2;SDS_P1;SDS_P2;PMS_P1;PMS_P2;Temp;Humidity;BMP_temperature;BMP_pressure;BME280_temperature;BME280_humidity;BME280_pressure;Samples;Min_cycle;Max_cycle;Signal;HPM_P1;HPM_P2
2023/05/17 04:44:26;;;;;;;15.70;5.20;;;;;;;16.32;74.93;100378.34;109183;1275;22405;-56
2023/05/17 04:46:54;;;;;;;7.40;4.40;;;;;;;16.43;75.15;100378.64;109008;1282;23161;-45
2023/05/17 04:49:21;;;;;;;12.80;5.30;;;;;;;16.52;74.84;100377.89;109691;1282;23091;-45
2023/05/17 04:51:48;;;;;;;8.10;5.00;;;;;;;16.62;73.93;100379.77;109817;1277;22295;-52
2023/05/17 04:54:15;;;;;;;9.60;4.60;;;;;;;16.70;73.69;100377.85;109730;1282;23134;-55
2023/05/17 04:56:42;;;;;;;10.20;4.50;;;;;;;16.81;73.61;100376.55;107536;1275;22504;-45
2023/05/17 04:59:13;;;;;;;16.20;4.60;;;;;;;16.91;72.84;100375.23;108678;1282;22310;-45
2023/05/17 05:01:40;;;;;;;11.80;5.10;;;;;;;17.00;72.07;100372.89;109337;1280;23035;-45
2023/05/17 05:04:07;;;;;;;11.30;5.10;;;;;;;17.10;72.26;100372.12;109785;1276;22821;-45
2023/05/17 05:06:39;;;;;;;13.30;4.40;;;;;;;17.19;72.10;100371.34;109760;1276;22230;-45
2023/05/17 05:09:06;;;;;;;10.00;4.00;;;;;;;17.29;71.75;100365.44;109658;1278;22297;-45
2023/05/17 05:11:35;;;;;;;11.10;5.10;;;;;;;17.38;70.88;100363.27;109731;1277;22346;-45
2023/05/17 05:14:02;;;;;;;12.30;5.00;;;;;;;17.49;69.93;100362.96;109548;1282;22882;-45
2023/05/17 05:16:29;;;;;;;9.50;4.90;;;;;;;17.62;69.27;100363.14;109584;1276;24019;-45
2023/05/17 05:18:57;;;;;;;18.20;4.80;;;;;;;17.76;68.10;100358.70;109566;1275;22658;-45
2023/05/17 05:21:26;;;;;;;13.40;4.70;;;;;;;17.91;67.04;100357.06;109456;1282;22897;-46
2023/05/17 05:23:54;;;;;;;10.40;5.00;;;;;;;18.06;66.30;100358.02;109044;1275;22459;-46
2023/05/17 05:26:22;;;;;;;6.90;4.60;;;;;;;18.22;65.76;100356.11;109691;1275;22886;-56
2023/05/17 05:28:50;;;;;;;9.70;4.80;;;;;;;18.39;65.25;100353.14;109240;1275;22225;-47
2023/05/17 05:31:27;;;;;;;12.50;4.80;;;;;;;18.57;63.74;100352.92;109348;1276;22789;-48
2023/05/17 05:34:43;;;;;;;16.80;5.60;;;;;;;18.79;62.26;100353.67;109170;1276;22576;-45
2023/05/17 05:42:30;;;;;;;12.10;5.30;;;;;;;19.25;59.37;100359.69;105585;1275;5220452;-55
2023/05/17 05:49:37;;;;;;;11.90;4.80;;;;;;;19.60;56.42;100358.46;109645;1275;22421;-54
2023/05/17 05:56:18;;;;;;;9.70;5.00;;;;;;;19.90;53.75;100359.69;109328;1276;22367;-55
2023/05/17 05:59:39;;;;;;;13.00;5.00;;;;;;;19.98;53.15;100364.71;108719;1275;22500;-47
2023/05/17 06:07:30;;;;;;;10.50;4.50;;;;;;;20.21;52.32;100363.12;109294;1275;22553;-54
2023/05/17 06:10:52;;;;;;;15.00;5.30;;;;;;;20.40;52.33;100356.34;109438;1277;22209;-47
2023/05/17 06:13:37;;;;;;;;;;;;;;;20.64;51.95;100354.15;108546;1276;23381;-47
2023/05/17 06:16:05;;;;;;;10.80;4.80;;;;;;;20.84;51.19;100354.62;109366;1276;23228;-47
2023/05/17 06:18:50;;;;;;;16.40;5.10;;;;;;;21.03;50.54;100352.23;109186;1277;23294;-46
2023/05/17 06:21:20;;;;;;;9.20;5.10;;;;;;;21.16;50.57;100350.41;109422;1276;22898;-46
2023/05/17 06:23:51;;;;;;;11.90;4.90;;;;;;;21.32;50.38;100350.80;108162;1276;22323;-46
2023/05/17 06:26:33;;;;;;;14.70;4.90;;;;;;;21.49;50.15;100350.23;108037;1277;23886;-47
2023/05/17 06:29:01;;;;;;;12.30;4.40;;;;;;;21.64;49.93;100353.83;109411;1275;22482;-47
2023/05/17 06:31:28;;;;;;;11.20;4.50;;;;;;;21.77;49.57;100353.26;109249;1276;22389;-54
2023/05/17 06:33:56;;;;;;;18.40;5.00;;;;;;;21.90;49.28;100353.89;109377;1276;22467;-46
2023/05/17 06:36:26;;;;;;;9.60;4.40;;;;;;;22.05;48.58;100357.13;108796;1275;22407;-46
2023/05/17 06:39:08;;;;;;;13.70;4.90;;;;;;;22.24;47.83;100353.58;109457;1275;22394;-46
2023/05/17 06:41:49;;;;;;;12.90;4.50;;;;;;;22.42;47.29;100350.08;108953;1278;22393;-52
2023/05/17 06:44:28;;;;;;;8.70;4.40;;;;;;;22.64;46.76;100354.85;108882;1278;22460;-45
2023/05/17 06:46:55;;;;;;;20.20;4.30;;;;;;;22.88;46.79;100353.54;109212;1275;22376;-55
2023/05/17 06:54:31;;;;;;;14.50;5.00;;;;;;;23.29;45.30;100349.45;109087;1275;24007;-54
2023/05/17 06:58:43;;;;;;;6.30;4.10;;;;;;;23.34;45.24;100349.39;109092;1276;22376;-46
2023/05/17 07:05:44;;;;;;;9.70;4.30;;;;;;;23.41;45.28;100354.00;108624;1275;23418;-55
2023/05/17 07:12:16;;;;;;;9.20;4.60;;;;;;;23.75;44.26;100353.65;109424;1275;22918;-56
2023/05/17 07:14:44;;;;;;;7.80;4.10;;;;;;;23.85;42.96;100355.28;109326;1262;22370;-56
2023/05/17 07:17:48;;;;;;;10.90;3.70;;;;;;;23.87;42.91;100356.77;109459;1276;22432;-52
2023/05/17 07:20:24;;;;;;;10.40;3.90;;;;;;;23.93;43.58;100355.35;109295;1280;22844;-46
2023/05/17 07:23:10;;;;;;;11.70;4.10;;;;;;;24.09;43.42;100353.03;109136;1278;23866;-54
2023/05/17 07:25:43;;;;;;;13.10;4.30;;;;;;;24.28;43.64;100353.05;109610;1275;22608;-47
2023/05/17 07:28:19;;;;;;;13.20;4.70;;;;;;;24.47;42.93;100354.02;109068;1278;22530;-55
2023/05/17 07:30:48;;;;;;;17.20;5.50;;;;;;;24.58;43.03;100354.27;108756;1275;22505;-47
2023/05/17 07:33:23;;;;;;;9.30;3.90;;;;;;;24.73;42.51;100351.80;109222;1276;22582;-55
2023/05/17 07:36:08;;;;;;;13.80;4.00;;;;;;;24.85;42.50;100352.90;109040;1276;22844;-56
2023/05/17 07:38:43;;;;;;;7.20;3.50;;;;;;;24.88;42.73;100355.02;109347;1276;23660;-55
2023/05/17 07:45:46;;;;;;;17.10;4.50;;;;;;;25.00;42.17;100358.29;109185;1275;22359;-47
2023/05/17 07:48:19;;;;;;;9.60;4.00;;;;;;;24.96;41.87;100357.61;108997;1275;22428;-46
2023/05/17 07:50:53;;;;;;;16.30;5.70;;;;;;;24.91;42.46;100356.41;109141;1273;23468;-55
2023/05/17 07:53:42;;;;;;;9.40;4.10;;;;;;;24.85;42.80;100357.88;108482;1273;23661;-46
2023/05/17 07:56:36;;;;;;;10.60;4.10;;;;;;;24.79;43.14;100360.36;109073;1275;23354;-54
2023/05/17 07:59:13;;;;;;;11.80;5.00;;;;;;;24.70;43.90;100363.40;108821;1277;25358;-46
2023/05/17 08:01:43;;;;;;;12.10;4.60;;;;;;;24.66;44.23;100364.49;108780;1275;22505;-55
2023/05/17 08:04:16;;;;;;;10.80;3.60;;;;;;;24.64;43.38;100368.70;108422;1274;22095;-47
2023/05/17 08:06:54;;;;;;;18.70;4.90;;;;;;;24.59;42.95;100370.64;108137;1280;23308;-56
2023/05/17 08:09:21;;;;;;;13.30;4.10;;;;;;;24.52;43.38;100370.66;108622;1281;22353;-56
2023/05/17 08:11:55;;;;;;;18.70;5.10;;;;;;;24.47;43.71;100370.76;108780;1275;22385;-46
2023/05/17 08:14:39;;;;;;;16.60;4.40;;;;;;;24.47;44.00;100373.64;108908;1282;22297;-55
2023/05/17 08:17:19;;;;;;;12.30;4.60;;;;;;;24.46;43.75;100370.09;108530;1280;22523;-46
2023/05/17 08:19:50;;;;;;;13.80;4.70;;;;;;;24.47;43.14;100373.09;108939;1280;22184;-46
2023/05/17 08:22:18;;;;;;;20.70;4.40;;;;;;;24.45;43.26;100374.27;109302;1269;23103;-48
2023/05/17 08:25:15;;;;;;;18.60;4.20;;;;;;;24.47;44.18;100374.71;108982;1275;23233;-55
2023/05/17 08:28:16;;;;;;;6.80;3.90;;;;;;;24.55;44.56;100374.24;109102;1275;22679;-47
2023/05/17 08:31:16;;;;;;;12.00;4.00;;;;;;;24.71;44.71;100372.98;108870;1277;22582;-47
2023/05/17 08:33:52;;;;;;;8.40;4.50;;;;;;;24.85;43.99;100370.54;108660;1276;22428;-47
2023/05/17 08:36:39;;;;;;;22.00;4.70;;;;;;;24.94;43.07;100364.65;108899;1267;23273;-56
2023/05/17 08:39:56;;;;;;;13.40;4.10;;;;;;;25.12;43.21;100366.33;108690;1275;23723;-47
2023/05/17 08:43:15;;;;;;;14.30;3.50;;;;;;;25.28;42.03;100364.31;109327;1280;22310;-54
2023/05/17 08:45:56;;;;;;;10.70;3.80;;;;;;;25.44;41.84;100360.27;108853;1275;22776;-55
2023/05/17 08:48:37;;;;;;;6.30;3.20;;;;;;;25.64;41.41;100355.50;109187;1268;22526;-47
2023/05/17 08:55:21;;;;;;;11.70;3.50;;;;;;;25.86;39.27;100353.98;107987;1269;22615;-46
2023/05/17 08:59:12;;;;;;;17.80;3.10;;;;;;;25.96;39.44;100348.86;108900;1273;22345;-46
2023/05/17 09:02:07;;;;;;;10.50;3.30;;;;;;;26.03;39.67;100350.92;108988;1275;22632;-46
2023/05/17 09:04:54;;;;;;;9.50;3.30;;;;;;;26.06;39.59;100352.36;109510;1274;23087;-46
2023/05/17 09:07:41;;;;;;;;;;;;;;;26.13;37.08;100346.21;109332;1277;22511;-56
2023/05/17 09:11:22;;;;;;;7.20;2.80;;;;;;;26.05;37.74;100346.20;108683;1275;22954;-56
2023/05/17 09:14:40;;;;;;;13.70;3.50;;;;;;;26.04;37.11;100343.19;109565;1276;23292;-47
2023/05/17 09:17:32;;;;;;;9.30;3.20;;;;;;;26.00;36.94;100343.41;109530;1279;22884;-46
2023/05/17 09:20:41;;;;;;;4.40;3.20;;;;;;;26.01;38.12;100341.96;109438;1281;22342;-55
2023/05/17 09:27:16;;;;;;;9.50;3.60;;;;;;;26.32;37.70;100344.05;109562;1276;22215;-54
2023/05/17 09:29:53;;;;;;;10.00;2.90;;;;;;;26.40;37.37;100340.70;109460;1281;22196;-47
2023/05/17 09:32:27;;;;;;;9.30;2.50;;;;;;;26.48;35.54;100342.66;108811;1278;22251;-47
2023/05/17 09:34:57;;;;;;;16.00;3.00;;;;;;;26.53;35.51;100341.64;109698;1275;22872;-56
2023/05/17 09:37:25;;;;;;;8.80;2.70;;;;;;;26.58;35.14;100341.90;109616;1275;23608;-57
2023/05/17 09:39:53;;;;;;;9.60;2.60;;;;;;;26.61;34.79;100335.23;109758;1278;23242;-55
2023/05/17 09:42:20;;;;;;;10.20;2.90;;;;;;;26.62;35.22;100335.72;109521;1274;22368;-47
2023/05/17 09:44:53;;;;;;;12.40;4.10;;;;;;;26.48;34.39;100332.68;109352;1278;22792;-48
2023/05/17 09:47:25;;;;;;;4.50;2.90;;;;;;;26.29;34.44;100333.34;109512;1275;22949;-47
2023/05/17 09:50:01;;;;;;;4.80;2.20;;;;;;;26.20;34.09;100332.67;109543;1281;22168;-47
2023/05/17 09:59:40;;;;;;;8.90;2.70;;;;;;;26.46;33.55;100327.80;109837;1278;22347;-48
2023/05/17 10:02:42;;;;;;;9.10;2.50;;;;;;;26.55;32.10;100322.91;109589;1277;22136;-47
2023/05/17 10:05:31;;;;;;;10.70;2.20;;;;;;;26.61;31.51;100324.35;109762;1281;22875;-47
2023/05/17 10:07:59;;;;;;;13.90;2.80;;;;;;;26.66;31.53;100320.96;109478;1281;23412;-48
2023/05/17 10:10:27;;;;;;;8.40;1.90;;;;;;;26.72;31.39;100326.09;109582;1278;22378;-47
2023/05/17 10:12:56;;;;;;;8.30;2.40;;;;;;;26.73;30.37;100319.57;109736;1279;23140;-47
2023/05/17 10:15:24;;;;;;;6.60;2.20;;;;;;;26.69;28.63;100318.43;109157;1276;23363;-47
2023/05/17 10:17:52;;;;;;;3.40;2.20;;;;;;;26.71;28.80;100315.80;109608;1281;22182;-47
2023/05/17 10:20:20;;;;;;;4.30;2.20;;;;;;;26.79;29.43;100310.03;109783;1275;23012;-47
2023/05/17 10:22:47;;;;;;;7.60;2.60;;;;;;;26.84;30.52;100309.59;109431;1273;22399;-49
2023/05/17 10:25:14;;;;;;;6.50;2.30;;;;;;;26.93;30.77;100307.67;109355;1277;22422;-47
2023/05/17 10:27:46;;;;;;;7.00;2.30;;;;;;;27.15;29.45;100303.36;109517;1275;22199;-54
2023/05/17 10:30:16;;;;;;;6.30;2.40;;;;;;;27.43;28.93;100299.44;109734;1275;22383;-47
2023/05/17 10:32:47;;;;;;;6.50;2.60;;;;;;;27.72;28.89;100300.26;109733;1281;22276;-47
2023/05/17 10:35:15;;;;;;;5.50;2.50;;;;;;;27.99;29.13;100301.88;109564;1275;22182;-47
2023/05/17 10:37:42;;;;;;;8.50;3.10;;;;;;;28.22;28.56;100298.44;109528;1276;23496;-55
2023/05/17 10:40:12;;;;;;;8.00;2.30;;;;;;;28.41;27.34;100298.66;109590;1275;22374;-55
2023/05/17 10:42:45;;;;;;;4.60;2.20;;;;;;;28.60;26.77;100295.82;109537;1281;22404;-47
2023/05/17 10:45:12;;;;;;;7.30;2.00;;;;;;;28.83;26.98;100298.01;109607;1276;22325;-47
2023/05/17 10:47:41;;;;;;;9.50;2.00;;;;;;;29.13;26.64;100291.05;109550;1281;22587;-47
2023/05/17 10:50:12;;;;;;;6.20;2.00;;;;;;;29.22;27.44;100283.43;109347;1276;22363;-50
2023/05/17 10:52:47;;;;;;;15.50;2.30;;;;;;;29.16;27.36;100287.96;108608;1275;22424;-56
2023/05/17 10:55:27;;;;;;;17.20;2.70;;;;;;;28.80;27.41;100287.66;109636;1281;22393;-47
2023/05/17 10:58:10;;;;;;;5.40;2.60;;;;;;;28.40;28.11;100293.75;109704;1274;22394;-47
2023/05/17 11:00:38;;;;;;;;;;;;;;;28.31;28.90;100298.68;109495;1275;22609;-45
2023/05/17 11:03:15;;;;;;;7.10;2.30;;;;;;;28.50;28.76;100290.51;109200;1275;22239;-54
2023/05/17 11:06:09;;;;;;;6.10;2.20;;;;;;;28.71;28.14;100284.81;109724;1280;22356;-48
2023/05/17 11:09:04;;;;;;;4.10;2.30;;;;;;;28.84;27.44;100285.55;109080;1288;22608;-48
2023/05/17 11:11:31;;;;;;;4.70;2.60;;;;;;;28.88;27.43;100282.03;109119;1288;22829;-55
2023/05/17 11:14:01;;;;;;;3.70;2.20;;;;;;;28.82;27.23;100280.15;109100;1286;22323;-48
2023/05/17 11:16:35;;;;;;;4.80;2.50;;;;;;;28.72;26.79;100277.49;109164;1288;23146;-47
2023/05/17 11:19:09;;;;;;;3.10;2.10;;;;;;;28.64;27.05;100276.14;109144;1281;23183;-55
2023/05/17 11:21:46;;;;;;;7.40;2.70;;;;;;;28.61;28.85;100279.64;109026;1284;22480;-50
2023/05/17 11:24:23;;;;;;;6.10;2.90;;;;;;;28.53;29.66;100278.05;109094;1284;22683;-49
2023/05/17 11:26:50;;;;;;;7.30;2.30;;;;;;;28.44;29.95;100275.70;109013;1284;22429;-50
2023/05/17 11:29:17;;;;;;;7.30;2.10;;;;;;;28.29;29.20;100277.71;109031;1288;23033;-48
2023/05/17 11:31:44;;;;;;;9.20;2.20;;;;;;;28.06;30.12;100275.02;109146;1284;23095;-54
2023/05/17 11:34:11;;;;;;;8.10;2.60;;;;;;;27.89;29.85;100271.29;109241;1284;22408;-49
2023/05/17 11:36:52;;;;;;;5.60;3.00;;;;;;;27.76;30.74;100271.15;109299;1288;22268;-49
2023/05/17 11:39:20;;;;;;;9.70;2.60;;;;;;;27.78;31.34;100266.50;109362;1284;22385;-49
2023/05/17 11:41:55;;;;;;;3.40;2.20;;;;;;;27.82;31.03;100267.13;109296;1288;22320;-50
2023/05/17 11:44:26;;;;;;;12.30;2.20;;;;;;;27.75;30.35;100269.77;109326;1288;23012;-49
2023/05/17 11:47:08;;;;;;;6.80;2.70;;;;;;;27.64;29.74;100269.48;109765;1281;22398;-54
2023/05/17 11:49:38;;;;;;;7.70;2.30;;;;;;;27.53;30.29;100267.72;109290;1281;22268;-49
2023/05/17 11:52:06;;;;;;;11.00;2.80;;;;;;;27.44;31.03;100263.73;109850;1276;22460;-49
2023/05/17 11:54:33;;;;;;;10.40;2.40;;;;;;;27.35;31.18;100260.05;109884;1281;22334;-50
2023/05/17 11:57:03;;;;;;;11.40;2.30;;;;;;;27.31;30.98;100259.97;109032;1281;22429;-49
2023/05/17 11:59:37;;;;;;;4.70;2.30;;;;;;;27.26;31.00;100254.59;108374;1281;22240;-48
2023/05/17 12:02:04;;;;;;;5.10;2.10;;;;;;;27.23;31.71;100253.90;109895;1276;22266;-54
2023/05/17 12:04:34;;;;;;;2.60;1.80;;;;;;;27.27;31.37;100250.45;109877;1281;22221;-47
2023/05/17 12:07:02;;;;;;;7.60;2.60;;;;;;;27.28;31.08;100249.78;109824;1281;23045;-48
2023/05/17 12:09:30;;;;;;;7.00;2.40;;;;;;;27.31;31.00;100248.85;109757;1273;22214;-48
2023/05/17 12:11:58;;;;;;;11.20;2.30;;;;;;;27.35;31.25;100249.71;109828;1281;22415;-48
2023/05/17 12:14:26;;;;;;;6.40;2.40;;;;;;;27.33;31.53;100246.06;109729;1281;23211;-48
2023/05/17 12:16:55;;;;;;;5.60;2.40;;;;;;;27.30;31.37;100244.60;108911;1281;24053;-49
2023/05/17 12:19:23;;;;;;;4.40;1.80;;;;;;;27.28;30.76;100243.70;108452;1281;22517;-48
2023/05/17 12:21:51;;;;;;;10.40;1.90;;;;;;;27.21;30.77;100241.14;107628;1281;22531;-53
2023/05/17 12:24:18;;;;;;;4.20;2.10;;;;;;;27.15;31.70;100237.13;107375;1281;22247;-55
2023/05/17 12:26:45;;;;;;;9.80;3.20;;;;;;;27.12;31.80;100237.50;107343;1281;22536;-53
2023/05/17 12:29:14;;;;;;;2.80;1.70;;;;;;;27.10;31.79;100233.71;107153;1281;24246;-49
2023/05/17 12:31:51;;;;;;;4.30;1.90;;;;;;;27.08;31.17;100236.91;108241;1281;22315;-48
2023/05/17 12:34:18;;;;;;;6.20;2.10;;;;;;;27.05;31.29;100234.56;108084;1271;23331;-45
2023/05/17 12:36:45;;;;;;;5.70;1.90;;;;;;;27.02;30.71;100232.94;109882;1281;22748;-45
2023/05/17 12:39:12;;;;;;;7.40;2.80;;;;;;;27.00;30.87;100230.61;109780;1281;23536;-44
2023/05/17 12:41:39;;;;;;;4.90;2.00;;;;;;;27.00;30.68;100229.89;109910;1281;22162;-45
2023/05/17 12:44:07;;;;;;;5.10;2.50;;;;;;;27.02;30.73;100227.21;109847;1281;22901;-49
2023/05/17 12:46:42;;;;;;;10.90;2.10;;;;;;;27.05;30.62;100230.27;107707;1281;22532;-48
2023/05/17 12:49:10;;;;;;;9.90;2.30;;;;;;;27.02;30.69;100231.70;109072;1281;22373;-45
2023/05/17 12:51:44;;;;;;;4.80;2.10;;;;;;;26.96;30.79;100236.44;109090;1281;24213;-46
2023/05/17 12:54:12;;;;;;;8.10;1.70;;;;;;;26.90;30.69;100234.52;108484;1281;22574;-44
2023/05/17 12:56:43;;;;;;;6.50;1.90;;;;;;;26.86;30.40;100233.17;108451;1281;22629;-45
2023/05/17 12:59:13;;;;;;;13.00;2.20;;;;;;;26.81;30.14;100229.95;107489;1281;22551;-48
2023/05/17 13:01:47;;;;;;;7.70;1.80;;;;;;;26.74;30.45;100227.41;107766;1281;22533;-45
2023/05/17 13:04:15;;;;;;;4.40;2.30;;;;;;;26.67;30.58;100228.92;108001;1281;22530;-44
2023/05/17 13:06:48;;;;;;;7.50;2.20;;;;;;;26.63;30.45;100226.32;107726;1281;22664;-49
2023/05/17 13:09:17;;;;;;;6.50;2.00;;;;;;;26.56;30.17;100220.23;109226;1281;22137;-48
2023/05/17 13:11:50;;;;;;;4.50;2.70;;;;;;;26.49;30.12;100219.80;109371;1281;23076;-47
2023/05/17 13:14:37;;;;;;;9.30;2.00;;;;;;;26.35;30.05;100216.05;109911;1281;22272;-46
2023/05/17 13:17:05;;;;;;;9.50;2.10;;;;;;;26.18;30.55;100218.10;109834;1281;22189;-49
2023/05/17 13:19:34;;;;;;;14.90;2.50;;;;;;;26.10;30.83;100215.97;106484;1282;22561;-49
2023/05/17 13:22:05;;;;;;;11.40;2.10;;;;;;;26.01;30.62;100218.84;109905;1281;22902;-45
2023/05/17 13:24:36;;;;;;;11.50;2.50;;;;;;;25.91;30.39;100219.16;109914;1281;22288;-46
2023/05/17 13:27:03;;;;;;;13.80;2.90;;;;;;;25.81;30.60;100215.16;109899;1281;22318;-46
2023/05/17 13:29:31;;;;;;;4.10;2.00;;;;;;;25.69;30.90;100216.41;109893;1281;22297;-46
2023/05/17 13:32:06;;;;;;;6.10;2.40;;;;;;;25.59;31.09;100218.48;109914;1281;22355;-46
2023/05/17 13:34:34;;;;;;;5.60;1.80;;;;;;;25.54;31.32;100219.87;109896;1281;22272;-46
2023/05/17 13:37:01;;;;;;;9.60;2.30;;;;;;;25.51;31.58;100220.78;109887;1282;22282;-50
2023/05/17 13:39:28;;;;;;;6.10;2.50;;;;;;;25.50;31.30;100224.59;109865;1282;22174;-46
2023/05/17 13:41:55;;;;;;;13.70;2.00;;;;;;;25.48;31.57;100223.45;109862;1282;22978;-45
2023/05/17 13:44:21;;;;;;;5.40;2.70;;;;;;;25.44;31.56;100221.56;109830;1282;22942;-46
2023/05/17 13:46:48;;;;;;;8.20;2.70;;;;;;;25.39;31.49;100221.69;108347;1282;22579;-45
2023/05/17 13:49:16;;;;;;;32.00;3.40;;;;;;;25.32;31.50;100221.27;108022;1282;22211;-46
2023/05/17 13:51:43;;;;;;;4.30;2.10;;;;;;;25.26;31.96;100220.05;107301;1282;22533;-45
2023/05/17 13:54:10;;;;;;;5.80;1.90;;;;;;;25.22;31.98;100220.27;107423;1282;22181;-49
2023/05/17 13:56:37;;;;;;;6.10;1.70;;;;;;;25.21;32.18;100215.52;107409;1282;22539;-48
2023/05/17 13:59:04;;;;;;;5.70;2.00;;;;;;;25.19;32.31;100213.30;106572;1282;22526;-45
2023/05/17 14:01:31;;;;;;;7.20;1.80;;;;;;;25.17;32.49;100210.92;107370;1281;22517;-45
2023/05/17 14:03:59;;;;;;;8.40;2.10;;;;;;;25.15;32.37;100204.80;106798;1281;22659;-49
2023/05/17 14:06:26;;;;;;;7.20;1.90;;;;;;;25.15;32.03;100204.80;106669;1281;22607;-45
2023/05/17 14:08:55;;;;;;;8.20;2.10;;;;;;;25.17;31.87;100210.06;106696;1281;24836;-47
2023/05/17 14:11:23;;;;;;;7.80;2.70;;;;;;;25.18;31.77;100207.85;106592;1281;22535;-44
2023/05/17 14:13:50;;;;;;;6.70;1.90;;;;;;;25.17;31.95;100204.86;106325;1281;23849;-45
2023/05/17 14:16:17;;;;;;;12.30;2.50;;;;;;;25.17;31.85;100201.84;107235;1281;22575;-47
2023/05/17 14:18:45;;;;;;;13.50;2.00;;;;;;;25.23;31.86;100198.79;107168;1281;22546;-45
2023/05/17 14:21:12;;;;;;;5.80;1.90;;;;;;;25.35;31.94;100196.05;106893;1260;24235;-45
2023/05/17 14:23:39;;;;;;;8.20;2.30;;;;;;;25.52;32.06;100194.45;106586;1281;22543;-44
2023/05/17 14:26:08;;;;;;;6.80;2.00;;;;;;;25.71;31.44;100194.36;107117;1281;22536;-50
2023/05/17 14:28:36;;;;;;;6.50;1.80;;;;;;;25.89;31.11;100190.16;106585;1281;24238;-48
2023/05/17 14:31:05;;;;;;;6.50;2.10;;;;;;;26.05;30.92;100186.74;106966;1281;23105;-45
2023/05/17 14:33:32;;;;;;;4.20;1.90;;;;;;;26.13;31.21;100185.54;106725;1281;22532;-49
2023/05/17 14:36:00;;;;;;;5.30;1.60;;;;;;;26.17;30.74;100180.58;107219;1281;25413;-45
2023/05/17 14:38:27;;;;;;;7.80;1.70;;;;;;;26.29;30.87;100177.64;108218;1281;22994;-45
2023/05/17 14:40:54;;;;;;;4.70;2.00;;;;;;;26.42;30.58;100178.19;108633;1281;22545;-44
2023/05/17 14:43:22;;;;;;;2.80;1.70;;;;;;;26.53;30.33;100179.48;106998;1281;22521;-45
2023/05/17 14:45:49;;;;;;;7.00;1.90;;;;;;;26.58;30.78;100177.58;106369;1281;25322;-45
2023/05/17 14:48:16;;;;;;;4.70;1.60;;;;;;;26.50;30.38;100176.42;106823;1281;22530;-44
2023/05/17 14:50:43;;;;;;;3.70;1.70;;;;;;;26.41;30.20;100170.63;108143;1281;22270;-45
2023/05/17 14:53:10;;;;;;;4.40;2.20;;;;;;;26.32;30.85;100173.55;109864;1281;22279;-49
2023/05/17 14:55:37;;;;;;;9.50;2.10;;;;;;;26.20;31.05;100175.41;109901;1281;22274;-45
2023/05/17 14:58:05;;;;;;;4.40;1.50;;;;;;;26.06;31.39;100176.33;109537;1281;22247;-49
2023/05/17 15:00:32;;;;;;;5.70;1.90;;;;;;;25.94;31.27;100177.28;109894;1281;22283;-46
2023/05/17 15:02:59;;;;;;;5.00;1.60;;;;;;;25.84;31.20;100177.98;109903;1281;22122;-45
2023/05/17 15:05:26;;;;;;;5.60;1.60;;;;;;;25.74;31.25;100175.04;109927;1281;22694;-45
2023/05/17 15:07:53;;;;;;;5.90;2.00;;;;;;;25.66;31.35;100174.86;109064;1281;22275;-46
2023/05/17 15:10:21;;;;;;;3.10;1.50;;;;;;;25.59;31.46;100175.97;107745;1281;22584;-45
2023/05/17 15:12:48;;;;;;;2.70;1.50;;;;;;;25.49;31.21;100171.60;107029;1281;22531;-44
2023/05/17 15:15:15;;;;;;;4.70;1.40;;;;;;;25.38;31.65;100170.16;106715;1281;22529;-44
2023/05/17 15:17:42;;;;;;;5.10;1.60;;;;;;;25.29;31.56;100169.66;107056;1281;25229;-44
2023/05/17 15:20:10;;;;;;;2.70;1.20;;;;;;;25.21;31.79;100166.95;106636;1281;25353;-48
2023/05/17 15:22:38;;;;;;;7.80;2.20;;;;;;;25.13;31.46;100163.90;107419;1281;22563;-45
2023/05/17 15:25:05;;;;;;;5.90;1.70;;;;;;;25.05;31.59;100160.81;106939;1281;22577;-49
2023/05/17 15:27:32;;;;;;;5.00;2.40;;;;;;;24.97;32.12;100160.94;106878;1281;22602;-44
2023/05/17 15:29:59;;;;;;;4.90;1.80;;;;;;;24.91;32.05;100162.01;106763;1281;25399;-45
2023/05/17 15:32:26;;;;;;;3.60;1.70;;;;;;;24.86;31.71;100165.37;107080;1260;24050;-45
2023/05/17 15:34:53;;;;;;;9.30;1.90;;;;;;;24.82;31.74;100165.45;107182;1281;24194;-45
2023/05/17 15:37:21;;;;;;;3.70;1.50;;;;;;;24.81;31.73;100164.94;106810;1281;22527;-48
2023/05/17 15:39:48;;;;;;;4.50;1.50;;;;;;;24.80;31.94;100162.70;106833;1281;22691;-44
2023/05/17 15:42:15;;;;;;;10.60;1.50;;;;;;;24.75;31.88;100161.59;106987;1281;22606;-49
2023/05/17 15:44:42;;;;;;;4.40;1.70;;;;;;;24.69;32.07;100162.14;106808;1281;22555;-45
2023/05/17 15:47:09;;;;;;;4.50;2.10;;;;;;;24.63;32.48;100164.09;107100;1281;22611;-49
2023/05/17 15:49:38;;;;;;;10.90;1.50;;;;;;;24.55;32.86;100159.95;106869;1281;25249;-46
2023/05/17 15:52:05;;;;;;;4.70;2.40;;;;;;;24.48;32.80;100170.73;107735;1281;22406;-45
2023/05/17 15:54:32;;;;;;;3.00;1.20;;;;;;;24.38;32.76;100168.77;108035;1281;22651;-49
2023/05/17 15:56:59;;;;;;;4.70;2.10;;;;;;;24.30;32.40;100171.23;106724;1281;22535;-45
2023/05/17 15:59:26;;;;;;;6.80;2.10;;;;;;;24.20;32.34;100168.96;107511;1281;25361;-46
2023/05/17 16:01:53;;;;;;;11.20;2.30;;;;;;;24.10;32.42;100173.06;107032;1282;22931;-44
2023/05/17 16:04:20;;;;;;;3.90;1.90;;;;;;;24.02;32.59;100179.98;107259;1282;25405;-47
2023/05/17 16:06:47;;;;;;;8.40;2.00;;;;;;;23.93;32.68;100184.41;106946;1282;25381;-45
2023/05/17 16:09:14;;;;;;;5.80;2.10;;;;;;;23.84;33.04;100181.67;106419;1282;25227;-44
2023/05/17 16:11:41;;;;;;;6.00;1.90;;;;;;;23.76;33.19;100184.80;107018;1282;22667;-48
2023/05/17 16:14:09;;;;;;;2.50;1.50;;;;;;;23.68;33.53;100189.89;106804;1282;22532;-45
2023/05/17 16:16:36;;;;;;;6.10;1.80;;;;;;;23.59;33.75;100191.23;106612;1282;22539;-45
2023/05/17 16:19:03;;;;;;;4.80;2.10;;;;;;;23.51;33.86;100191.55;106576;1282;23872;-44
2023/05/17 16:21:31;;;;;;;3.40;1.80;;;;;;;23.40;34.01;100193.90;106832;1282;22621;-44
2023/05/17 16:23:58;;;;;;;2.90;1.80;;;;;;;23.28;34.25;100192.61;106542;1282;25588;-49
2023/05/17 16:26:26;;;;;;;7.50;1.90;;;;;;;23.16;34.48;100192.70;106407;1282;23904;-46
2023/05/17 16:28:55;;;;;;;8.20;1.70;;;;;;;23.06;34.79;100195.22;106541;1282;22543;-45
2023/05/17 16:31:22;;;;;;;7.60;1.80;;;;;;;22.97;34.92;100196.23;106708;1282;22533;-44
2023/05/17 16:33:49;;;;;;;9.30;2.00;;;;;;;22.88;35.07;100191.36;106590;1282;22539;-47
2023/05/17 16:36:17;;;;;;;5.20;1.70;;;;;;;22.79;35.16;100192.15;106687;1282;26677;-49
2023/05/17 16:38:44;;;;;;;8.70;1.70;;;;;;;22.70;35.38;100190.50;106528;1282;22644;-45
2023/05/17 16:41:11;;;;;;;6.00;1.60;;;;;;;22.60;35.44;100196.89;106610;1282;22592;-44
2023/05/17 16:43:38;;;;;;;4.60;1.80;;;;;;;22.48;35.59;100193.23;106514;1282;23419;-45
2023/05/17 16:46:05;;;;;;;7.20;1.60;;;;;;;22.39;35.65;100194.22;106626;1282;25264;-49
2023/05/17 16:48:32;;;;;;;2.90;1.70;;;;;;;22.30;35.74;100193.77;106555;1282;27080;-44
2023/05/17 16:50:59;;;;;;;4.70;1.70;;;;;;;22.21;35.84;100193.48;106737;1282;22561;-49
2023/05/17 16:53:29;;;;;;;6.20;1.60;;;;;;;22.12;36.02;100198.56;106726;1282;22568;-44
2023/05/17 16:55:56;;;;;;;2.10;1.50;;;;;;;22.03;36.26;100195.94;106547;1282;22660;-44
2023/05/17 16:58:24;;;;;;;2.50;1.70;;;;;;;21.94;36.41;100198.19;106133;1282;22538;-47
2023/05/17 17:00:51;;;;;;;6.30;2.00;;;;;;;21.84;36.82;100202.92;106629;1281;23334;-45
2023/05/17 17:03:18;;;;;;;3.40;1.70;;;;;;;21.72;37.26;100205.95;106453;1281;22523;-49
2023/05/17 17:05:46;;;;;;;4.60;1.90;;;;;;;21.61;37.47;100204.02;106801;1281;24210;-45
2023/05/17 17:08:13;;;;;;;4.90;2.00;;;;;;;21.50;37.86;100207.55;106790;1281;22552;-44
2023/05/17 17:10:40;;;;;;;5.30;2.10;;;;;;;21.42;37.88;100205.46;106707;1281;22543;-49
2023/05/17 17:13:07;;;;;;;3.50;1.60;;;;;;;21.33;37.79;100202.50;106366;1281;22523;-45
2023/05/17 17:15:34;;;;;;;5.10;1.60;;;;;;;21.23;37.98;100202.54;106968;1281;22519;-45
2023/05/17 17:18:01;;;;;;;3.70;2.00;;;;;;;21.13;37.91;100207.08;106799;1281;22527;-44